Aérodrome :
LOGIN :

S'inscrire | Disclaimer

   EN    FR    IT 

 










Légende :    VFR   VFR Marginal   IFR   IFR Intensif   IFR Très Intensif
Visi : 
Plafond : 
>= 8 km
>= 3000ft
5 à 8 km
1000 à 3000 ft
1500m à 5 km
500 à 1000 ft
800 à 1500m
200 à 500 ft
< 800m
< 200 ft
Symboles :   Orages  Brouillard  Fortes neiges  Fortes précipitations  Vent > 20 kt
SIGMETs :   Divers  Orages  Givrage  Turbulence  Onde Orograph.  Cendres Volcan.






- Altitude de l'aérodrome : 915 ft
- Code IATA : LUG


LSZA - Lugano

DERNIER METAR :
  • 231450Z 18008KT 130V240 9999 VCSH FEW065 BKN085 12/01 Q1006

METARs EXPIRÉS :
  • 231420Z 18010KT 090V220 9999 VCSH BKN090 12/01 Q1005
  • 231350Z 01008KT 330V080 9999 FEW030 BKN100 14/M03 Q1005
  • 231320Z 36011KT 340V050 9999 SCT075 15/M03 Q1005
  • 231250Z 36010KT 9999 SCT075 15/M00 Q1005
  • 231220Z 20006KT 170V230 9999 VCSH SCT075 13/M00 Q1006
  • 231150Z VRB04KT 9999 VCSH SCT075 12/00 Q1006
  • 231120Z 19005KT 140V230 9999 SCT075 11/M01 Q1007
  • 231050Z AUTO 18006KT 130V220 9999 SCT075 11/00 Q1007
  • 231020Z AUTO 18006KT 140V210 9999 FEW055 BKN065 BKN075 09/02 Q1008
  • 230950Z VRB04KT 9999 VCSH FEW030 FEW050TCU BKN063 08/02 Q1009

TAF TAF LSZA
Valide du 23 à 15h jusqu'au 24 à 00h UTC


231425Z 2315/2324 01008KT 9999 FEW030 BKN100
PROB30
TEMPO 2315/2319 SHRA SCT050TCU
BECMG 2320/2323 CAVOK
ATIS : +41 22 417 40 88



MET'MAP, la Météo Aéronautique d'un coup d'oeil ! - Copyright ORBIFLY Décembre 2007 - Disclaimer

ORBIFLY MET'MAP TEAM :

Programmation & Développement : Alexandra Zaïnal
Sur une idée originale de : Baudouin d'Aumeries
Soutien technique & logistique : Manuel Goepfert
Assistance : Marc-Olivier Méhu




SOURCES & CREDITS :

   NOAA